sensor_id;sensor_type;location;lat;lon;timestamp;P1;durP1;ratioP1;P2;durP2;ratioP2
6519;SDS011;3293;51.690;5.982;2022-10-16T00:04:09;11.60;;;6.90;;
6519;SDS011;3293;51.690;5.982;2022-10-16T00:09:09;10.93;;;7.33;;
6519;SDS011;3293;51.690;5.982;2022-10-16T00:14:11;10.03;;;6.87;;
6519;SDS011;3293;51.690;5.982;2022-10-16T00:19:12;9.57;;;7.10;;
6519;SDS011;3293;51.690;5.982;2022-10-16T00:24:12;13.13;;;7.70;;
6519;SDS011;3293;51.690;5.982;2022-10-16T00:29:12;12.53;;;7.27;;
6519;SDS011;3293;51.690;5.982;2022-10-16T00:34:12;12.40;;;7.30;;
6519;SDS011;3293;51.690;5.982;2022-10-16T00:39:12;9.97;;;7.47;;
6519;SDS011;3293;51.690;5.982;2022-10-16T00:49:40;10.17;;;7.37;;
6519;SDS011;3293;51.690;5.982;2022-10-16T00:54:40;9.07;;;7.40;;
6519;SDS011;3293;51.690;5.982;2022-10-16T00:59:40;7.67;;;6.30;;
6519;SDS011;3293;51.690;5.982;2022-10-16T01:04:45;9.03;;;6.87;;
6519;SDS011;3293;51.690;5.982;2022-10-16T01:15:08;10.70;;;7.13;;
6519;SDS011;3293;51.690;5.982;2022-10-16T01:25:33;9.50;;;6.73;;
6519;SDS011;3293;51.690;5.982;2022-10-16T01:30:56;11.70;;;7.00;;
6519;SDS011;3293;51.690;5.982;2022-10-16T01:35:59;7.90;;;6.67;;
6519;SDS011;3293;51.690;5.982;2022-10-16T01:41:19;11.00;;;7.07;;
6519;SDS011;3293;51.690;5.982;2022-10-16T01:46:24;11.63;;;6.53;;
6519;SDS011;3293;51.690;5.982;2022-10-16T01:51:25;8.30;;;6.53;;
6519;SDS011;3293;51.690;5.982;2022-10-16T01:56:27;9.50;;;7.57;;
6519;SDS011;3293;51.690;5.982;2022-10-16T02:01:28;8.20;;;6.80;;
6519;SDS011;3293;51.690;5.982;2022-10-16T02:06:30;9.83;;;6.37;;
6519;SDS011;3293;51.690;5.982;2022-10-16T02:11:31;12.93;;;7.00;;
6519;SDS011;3293;51.690;5.982;2022-10-16T02:16:42;10.20;;;6.53;;
6519;SDS011;3293;51.690;5.982;2022-10-16T02:21:44;10.77;;;6.60;;
6519;SDS011;3293;51.690;5.982;2022-10-16T02:32:30;7.77;;;5.90;;
6519;SDS011;3293;51.690;5.982;2022-10-16T02:37:32;6.30;;;5.20;;
6519;SDS011;3293;51.690;5.982;2022-10-16T02:42:33;6.27;;;5.43;;
6519;SDS011;3293;51.690;5.982;2022-10-16T02:47:34;5.97;;;5.33;;
6519;SDS011;3293;51.690;5.982;2022-10-16T02:52:34;5.67;;;5.07;;
6519;SDS011;3293;51.690;5.982;2022-10-16T02:57:34;6.97;;;5.73;;
6519;SDS011;3293;51.690;5.982;2022-10-16T03:02:36;6.10;;;4.77;;
6519;SDS011;3293;51.690;5.982;2022-10-16T03:07:36;5.97;;;4.87;;
6519;SDS011;3293;51.690;5.982;2022-10-16T03:12:36;5.77;;;4.73;;
6519;SDS011;3293;51.690;5.982;2022-10-16T03:17:36;8.33;;;4.97;;
6519;SDS011;3293;51.690;5.982;2022-10-16T03:22:36;6.50;;;4.80;;
6519;SDS011;3293;51.690;5.982;2022-10-16T03:27:36;5.97;;;4.53;;
6519;SDS011;3293;51.690;5.982;2022-10-16T03:32:36;6.37;;;4.73;;
6519;SDS011;3293;51.690;5.982;2022-10-16T03:37:36;7.23;;;4.83;;
6519;SDS011;3293;51.690;5.982;2022-10-16T03:42:36;8.63;;;5.23;;
6519;SDS011;3293;51.690;5.982;2022-10-16T03:47:36;7.13;;;4.97;;
6519;SDS011;3293;51.690;5.982;2022-10-16T03:52:36;6.83;;;5.43;;
6519;SDS011;3293;51.690;5.982;2022-10-16T03:57:36;8.20;;;5.63;;
6519;SDS011;3293;51.690;5.982;2022-10-16T04:02:36;5.40;;;4.90;;
6519;SDS011;3293;51.690;5.982;2022-10-16T04:07:36;5.67;;;4.83;;
6519;SDS011;3293;51.690;5.982;2022-10-16T04:12:37;5.63;;;5.13;;
6519;SDS011;3293;51.690;5.982;2022-10-16T04:17:37;10.47;;;5.13;;
6519;SDS011;3293;51.690;5.982;2022-10-16T04:22:37;6.23;;;4.97;;
6519;SDS011;3293;51.690;5.982;2022-10-16T04:27:37;6.33;;;4.87;;
6519;SDS011;3293;51.690;5.982;2022-10-16T04:32:37;4.97;;;4.40;;
6519;SDS011;3293;51.690;5.982;2022-10-16T04:37:37;5.50;;;4.90;;
6519;SDS011;3293;51.690;5.982;2022-10-16T04:42:37;5.40;;;4.87;;
6519;SDS011;3293;51.690;5.982;2022-10-16T04:47:37;5.17;;;4.57;;
6519;SDS011;3293;51.690;5.982;2022-10-16T04:52:37;7.00;;;4.30;;
6519;SDS011;3293;51.690;5.982;2022-10-16T04:57:37;7.40;;;4.57;;
6519;SDS011;3293;51.690;5.982;2022-10-16T05:02:37;6.77;;;4.47;;
6519;SDS011;3293;51.690;5.982;2022-10-16T05:07:37;7.87;;;4.20;;
6519;SDS011;3293;51.690;5.982;2022-10-16T05:12:37;6.33;;;4.47;;
6519;SDS011;3293;51.690;5.982;2022-10-16T05:17:37;5.63;;;4.37;;
6519;SDS011;3293;51.690;5.982;2022-10-16T05:22:37;7.73;;;4.60;;
6519;SDS011;3293;51.690;5.982;2022-10-16T05:27:37;4.33;;;3.93;;
6519;SDS011;3293;51.690;5.982;2022-10-16T05:32:37;9.43;;;4.77;;
6519;SDS011;3293;51.690;5.982;2022-10-16T05:37:37;6.60;;;4.57;;
6519;SDS011;3293;51.690;5.982;2022-10-16T05:42:37;7.47;;;5.20;;
6519;SDS011;3293;51.690;5.982;2022-10-16T05:47:37;6.30;;;4.77;;
6519;SDS011;3293;51.690;5.982;2022-10-16T05:52:37;9.13;;;5.37;;
6519;SDS011;3293;51.690;5.982;2022-10-16T05:57:38;5.90;;;4.70;;
6519;SDS011;3293;51.690;5.982;2022-10-16T06:02:38;8.33;;;4.60;;
6519;SDS011;3293;51.690;5.982;2022-10-16T06:07:37;8.90;;;4.90;;
6519;SDS011;3293;51.690;5.982;2022-10-16T06:12:37;8.07;;;5.27;;
6519;SDS011;3293;51.690;5.982;2022-10-16T06:17:37;6.23;;;4.40;;
6519;SDS011;3293;51.690;5.982;2022-10-16T06:22:37;9.27;;;4.97;;
6519;SDS011;3293;51.690;5.982;2022-10-16T06:27:40;8.60;;;4.80;;
6519;SDS011;3293;51.690;5.982;2022-10-16T06:32:40;5.60;;;5.10;;
6519;SDS011;3293;51.690;5.982;2022-10-16T06:37:40;9.43;;;5.03;;
6519;SDS011;3293;51.690;5.982;2022-10-16T06:42:40;8.83;;;5.17;;
6519;SDS011;3293;51.690;5.982;2022-10-16T06:47:41;7.43;;;5.13;;
6519;SDS011;3293;51.690;5.982;2022-10-16T06:52:40;11.50;;;5.57;;
6519;SDS011;3293;51.690;5.982;2022-10-16T06:57:40;6.93;;;5.30;;
6519;SDS011;3293;51.690;5.982;2022-10-16T07:02:40;7.30;;;5.77;;
6519;SDS011;3293;51.690;5.982;2022-10-16T07:07:40;6.17;;;5.43;;
6519;SDS011;3293;51.690;5.982;2022-10-16T07:12:40;8.13;;;5.40;;
6519;SDS011;3293;51.690;5.982;2022-10-16T07:17:40;6.80;;;4.53;;
6519;SDS011;3293;51.690;5.982;2022-10-16T07:22:40;7.10;;;4.70;;
6519;SDS011;3293;51.690;5.982;2022-10-16T07:27:40;7.90;;;4.43;;
6519;SDS011;3293;51.690;5.982;2022-10-16T07:32:40;6.60;;;3.67;;
6519;SDS011;3293;51.690;5.982;2022-10-16T07:37:43;4.57;;;3.20;;
6519;SDS011;3293;51.690;5.982;2022-10-16T07:42:46;8.57;;;5.80;;
6519;SDS011;3293;51.690;5.982;2022-10-16T07:47:46;8.13;;;6.07;;
6519;SDS011;3293;51.690;5.982;2022-10-16T07:52:46;11.20;;;7.23;;
6519;SDS011;3293;51.690;5.982;2022-10-16T07:57:46;30.37;;;23.93;;
6519;SDS011;3293;51.690;5.982;2022-10-16T08:02:46;51.50;;;38.70;;
6519;SDS011;3293;51.690;5.982;2022-10-16T08:07:49;42.67;;;38.03;;
6519;SDS011;3293;51.690;5.982;2022-10-16T08:12:49;34.53;;;30.30;;
6519;SDS011;3293;51.690;5.982;2022-10-16T08:17:56;40.80;;;34.53;;
6519;SDS011;3293;51.690;5.982;2022-10-16T08:22:57;31.47;;;27.90;;
6519;SDS011;3293;51.690;5.982;2022-10-16T08:27:58;13.63;;;10.20;;
6519;SDS011;3293;51.690;5.982;2022-10-16T08:32:58;12.43;;;10.97;;
6519;SDS011;3293;51.690;5.982;2022-10-16T08:37:58;10.80;;;8.33;;
6519;SDS011;3293;51.690;5.982;2022-10-16T08:48:22;16.63;;;12.93;;
6519;SDS011;3293;51.690;5.982;2022-10-16T08:53:37;12.53;;;11.17;;
6519;SDS011;3293;51.690;5.982;2022-10-16T08:58:53;12.83;;;8.10;;
6519;SDS011;3293;51.690;5.982;2022-10-16T09:14:15;4.93;;;2.70;;
6519;SDS011;3293;51.690;5.982;2022-10-16T09:19:27;7.40;;;3.20;;
6519;SDS011;3293;51.690;5.982;2022-10-16T09:24:33;6.77;;;2.90;;
6519;SDS011;3293;51.690;5.982;2022-10-16T09:29:33;9.97;;;6.30;;
6519;SDS011;3293;51.690;5.982;2022-10-16T09:34:34;10.40;;;4.43;;
6519;SDS011;3293;51.690;5.982;2022-10-16T09:39:47;9.60;;;7.90;;
6519;SDS011;3293;51.690;5.982;2022-10-16T09:44:54;8.93;;;3.93;;
6519;SDS011;3293;51.690;5.982;2022-10-16T09:49:55;18.97;;;11.30;;
6519;SDS011;3293;51.690;5.982;2022-10-16T09:55:09;11.47;;;7.33;;
6519;SDS011;3293;51.690;5.982;2022-10-16T10:00:16;18.33;;;10.53;;
6519;SDS011;3293;51.690;5.982;2022-10-16T10:05:18;6.73;;;2.77;;
6519;SDS011;3293;51.690;5.982;2022-10-16T10:10:23;9.80;;;2.90;;
6519;SDS011;3293;51.690;5.982;2022-10-16T10:15:27;6.17;;;3.00;;
6519;SDS011;3293;51.690;5.982;2022-10-16T10:20:34;8.93;;;2.80;;
6519;SDS011;3293;51.690;5.982;2022-10-16T10:25:39;7.40;;;3.30;;
6519;SDS011;3293;51.690;5.982;2022-10-16T10:31:01;9.33;;;2.77;;
6519;SDS011;3293;51.690;5.982;2022-10-16T10:36:19;6.10;;;2.77;;
6519;SDS011;3293;51.690;5.982;2022-10-16T10:47:13;10.87;;;3.07;;
6519;SDS011;3293;51.690;5.982;2022-10-16T10:53:14;7.63;;;3.03;;
6519;SDS011;3293;51.690;5.982;2022-10-16T11:08:55;9.67;;;2.80;;
6519;SDS011;3293;51.690;5.982;2022-10-16T11:24:45;8.37;;;2.23;;
6519;SDS011;3293;51.690;5.982;2022-10-16T11:30:05;7.53;;;2.80;;
6519;SDS011;3293;51.690;5.982;2022-10-16T11:35:24;12.30;;;3.23;;
6519;SDS011;3293;51.690;5.982;2022-10-16T11:40:33;11.67;;;3.27;;
6519;SDS011;3293;51.690;5.982;2022-10-16T11:45:48;8.63;;;2.90;;
6519;SDS011;3293;51.690;5.982;2022-10-16T11:50:55;7.30;;;2.40;;
6519;SDS011;3293;51.690;5.982;2022-10-16T11:56:00;9.80;;;2.57;;
6519;SDS011;3293;51.690;5.982;2022-10-16T12:01:04;5.23;;;2.53;;
6519;SDS011;3293;51.690;5.982;2022-10-16T12:16:25;7.97;;;2.80;;
6519;SDS011;3293;51.690;5.982;2022-10-16T12:21:29;9.80;;;2.53;;
6519;SDS011;3293;51.690;5.982;2022-10-16T12:26:31;10.83;;;2.97;;
6519;SDS011;3293;51.690;5.982;2022-10-16T12:31:37;6.77;;;2.70;;
6519;SDS011;3293;51.690;5.982;2022-10-16T12:36:44;7.03;;;2.60;;
6519;SDS011;3293;51.690;5.982;2022-10-16T12:41:44;9.63;;;2.53;;
6519;SDS011;3293;51.690;5.982;2022-10-16T12:46:44;8.75;;;2.55;;
6519;SDS011;3293;51.690;5.982;2022-10-16T12:51:44;8.63;;;2.72;;
6519;SDS011;3293;51.690;5.982;2022-10-16T13:02:18;10.10;;;3.45;;
6519;SDS011;3293;51.690;5.982;2022-10-16T13:07:39;7.82;;;2.83;;
6519;SDS011;3293;51.690;5.982;2022-10-16T13:13:10;6.13;;;2.60;;
6519;SDS011;3293;51.690;5.982;2022-10-16T13:29:29;13.50;;;3.33;;
6519;SDS011;3293;51.690;5.982;2022-10-16T13:34:30;7.83;;;2.43;;
6519;SDS011;3293;51.690;5.982;2022-10-16T13:39:30;6.18;;;2.78;;
6519;SDS011;3293;51.690;5.982;2022-10-16T13:44:31;7.10;;;2.80;;
6519;SDS011;3293;51.690;5.982;2022-10-16T13:49:40;5.63;;;2.40;;
6519;SDS011;3293;51.690;5.982;2022-10-16T13:54:40;7.60;;;2.60;;
6519;SDS011;3293;51.690;5.982;2022-10-16T13:59:40;9.17;;;2.53;;
6519;SDS011;3293;51.690;5.982;2022-10-16T14:04:41;7.57;;;2.63;;
6519;SDS011;3293;51.690;5.982;2022-10-16T14:09:41;10.30;;;2.47;;
6519;SDS011;3293;51.690;5.982;2022-10-16T14:14:45;10.43;;;2.70;;
6519;SDS011;3293;51.690;5.982;2022-10-16T14:19:47;6.80;;;2.20;;
6519;SDS011;3293;51.690;5.982;2022-10-16T14:24:50;4.37;;;2.23;;
6519;SDS011;3293;51.690;5.982;2022-10-16T14:29:49;7.32;;;2.25;;
6519;SDS011;3293;51.690;5.982;2022-10-16T14:34:53;4.55;;;1.98;;
6519;SDS011;3293;51.690;5.982;2022-10-16T14:39:54;4.85;;;2.10;;
6519;SDS011;3293;51.690;5.982;2022-10-16T14:44:55;3.97;;;2.20;;
6519;SDS011;3293;51.690;5.982;2022-10-16T14:49:56;6.70;;;2.53;;
6519;SDS011;3293;51.690;5.982;2022-10-16T14:54:58;9.65;;;2.40;;
6519;SDS011;3293;51.690;5.982;2022-10-16T14:59:58;6.60;;;3.00;;
6519;SDS011;3293;51.690;5.982;2022-10-16T15:04:58;5.43;;;2.42;;
6519;SDS011;3293;51.690;5.982;2022-10-16T15:10:10;3.60;;;2.15;;
6519;SDS011;3293;51.690;5.982;2022-10-16T15:20:24;7.72;;;2.85;;
6519;SDS011;3293;51.690;5.982;2022-10-16T15:25:34;8.30;;;3.95;;
6519;SDS011;3293;51.690;5.982;2022-10-16T15:30:37;9.10;;;4.18;;
6519;SDS011;3293;51.690;5.982;2022-10-16T15:35:37;4.77;;;2.57;;
6519;SDS011;3293;51.690;5.982;2022-10-16T15:40:38;8.53;;;3.60;;
6519;SDS011;3293;51.690;5.982;2022-10-16T15:45:38;6.17;;;3.67;;
6519;SDS011;3293;51.690;5.982;2022-10-16T15:50:38;8.17;;;3.20;;
6519;SDS011;3293;51.690;5.982;2022-10-16T15:55:38;7.90;;;3.17;;
6519;SDS011;3293;51.690;5.982;2022-10-16T16:00:38;6.63;;;2.30;;
6519;SDS011;3293;51.690;5.982;2022-10-16T16:05:38;4.43;;;2.50;;
6519;SDS011;3293;51.690;5.982;2022-10-16T16:10:39;3.30;;;2.07;;
6519;SDS011;3293;51.690;5.982;2022-10-16T16:15:39;3.47;;;2.13;;
6519;SDS011;3293;51.690;5.982;2022-10-16T16:20:40;4.90;;;2.37;;
6519;SDS011;3293;51.690;5.982;2022-10-16T16:25:40;5.00;;;2.47;;
6519;SDS011;3293;51.690;5.982;2022-10-16T16:30:40;4.57;;;2.47;;
6519;SDS011;3293;51.690;5.982;2022-10-16T16:35:40;6.60;;;3.43;;
6519;SDS011;3293;51.690;5.982;2022-10-16T16:40:40;7.87;;;3.10;;
6519;SDS011;3293;51.690;5.982;2022-10-16T16:45:40;6.67;;;2.97;;
6519;SDS011;3293;51.690;5.982;2022-10-16T16:50:40;6.27;;;2.70;;
6519;SDS011;3293;51.690;5.982;2022-10-16T16:55:40;4.73;;;2.87;;
6519;SDS011;3293;51.690;5.982;2022-10-16T17:00:47;4.27;;;3.50;;
6519;SDS011;3293;51.690;5.982;2022-10-16T17:05:56;5.40;;;3.40;;
6519;SDS011;3293;51.690;5.982;2022-10-16T17:10:58;3.30;;;3.00;;
6519;SDS011;3293;51.690;5.982;2022-10-16T17:15:58;8.03;;;5.10;;
6519;SDS011;3293;51.690;5.982;2022-10-16T17:20:58;11.17;;;4.93;;
6519;SDS011;3293;51.690;5.982;2022-10-16T17:26:06;5.23;;;3.77;;
6519;SDS011;3293;51.690;5.982;2022-10-16T17:31:12;8.03;;;4.00;;
6519;SDS011;3293;51.690;5.982;2022-10-16T17:36:14;9.70;;;4.20;;
6519;SDS011;3293;51.690;5.982;2022-10-16T17:41:22;5.17;;;4.10;;
6519;SDS011;3293;51.690;5.982;2022-10-16T17:46:23;6.67;;;4.47;;
6519;SDS011;3293;51.690;5.982;2022-10-16T17:51:27;4.43;;;3.80;;
6519;SDS011;3293;51.690;5.982;2022-10-16T17:56:29;8.90;;;3.70;;
6519;SDS011;3293;51.690;5.982;2022-10-16T18:01:31;7.40;;;3.97;;
6519;SDS011;3293;51.690;5.982;2022-10-16T18:06:32;7.97;;;3.80;;
6519;SDS011;3293;51.690;5.982;2022-10-16T18:11:33;7.93;;;4.13;;
6519;SDS011;3293;51.690;5.982;2022-10-16T18:16:33;5.03;;;3.30;;
6519;SDS011;3293;51.690;5.982;2022-10-16T18:21:35;8.17;;;4.03;;
6519;SDS011;3293;51.690;5.982;2022-10-16T18:26:35;5.03;;;3.80;;
6519;SDS011;3293;51.690;5.982;2022-10-16T18:31:36;5.37;;;3.60;;
6519;SDS011;3293;51.690;5.982;2022-10-16T18:36:37;5.77;;;3.50;;
6519;SDS011;3293;51.690;5.982;2022-10-16T18:41:39;10.57;;;3.87;;
6519;SDS011;3293;51.690;5.982;2022-10-16T18:46:40;7.20;;;4.07;;
6519;SDS011;3293;51.690;5.982;2022-10-16T18:51:40;12.17;;;5.97;;
6519;SDS011;3293;51.690;5.982;2022-10-16T18:56:41;12.13;;;5.37;;
6519;SDS011;3293;51.690;5.982;2022-10-16T19:01:41;7.57;;;5.03;;
6519;SDS011;3293;51.690;5.982;2022-10-16T19:06:45;8.63;;;5.47;;
6519;SDS011;3293;51.690;5.982;2022-10-16T19:11:48;6.77;;;5.70;;
6519;SDS011;3293;51.690;5.982;2022-10-16T19:16:48;8.57;;;5.23;;
6519;SDS011;3293;51.690;5.982;2022-10-16T19:21:48;10.07;;;5.73;;
6519;SDS011;3293;51.690;5.982;2022-10-16T19:26:57;10.37;;;4.70;;
6519;SDS011;3293;51.690;5.982;2022-10-16T19:31:57;5.83;;;4.87;;
6519;SDS011;3293;51.690;5.982;2022-10-16T19:37:00;7.97;;;4.77;;
6519;SDS011;3293;51.690;5.982;2022-10-16T19:42:00;6.93;;;4.83;;
6519;SDS011;3293;51.690;5.982;2022-10-16T19:47:00;8.77;;;5.27;;
6519;SDS011;3293;51.690;5.982;2022-10-16T19:52:02;7.87;;;5.50;;
6519;SDS011;3293;51.690;5.982;2022-10-16T19:57:02;8.90;;;6.20;;
6519;SDS011;3293;51.690;5.982;2022-10-16T20:02:02;9.77;;;5.80;;
6519;SDS011;3293;51.690;5.982;2022-10-16T20:07:02;10.20;;;7.20;;
6519;SDS011;3293;51.690;5.982;2022-10-16T20:12:02;12.57;;;9.43;;
6519;SDS011;3293;51.690;5.982;2022-10-16T20:17:03;7.93;;;7.03;;
6519;SDS011;3293;51.690;5.982;2022-10-16T20:22:04;8.80;;;7.10;;
6519;SDS011;3293;51.690;5.982;2022-10-16T20:27:04;11.37;;;7.97;;
6519;SDS011;3293;51.690;5.982;2022-10-16T20:32:03;9.33;;;7.50;;
6519;SDS011;3293;51.690;5.982;2022-10-16T20:37:03;9.10;;;8.07;;
6519;SDS011;3293;51.690;5.982;2022-10-16T20:42:04;11.47;;;8.67;;
6519;SDS011;3293;51.690;5.982;2022-10-16T20:47:04;11.20;;;9.20;;
6519;SDS011;3293;51.690;5.982;2022-10-16T20:52:04;9.50;;;8.33;;
6519;SDS011;3293;51.690;5.982;2022-10-16T20:57:04;10.67;;;8.43;;
6519;SDS011;3293;51.690;5.982;2022-10-16T21:02:03;11.33;;;9.23;;
6519;SDS011;3293;51.690;5.982;2022-10-16T21:07:06;9.70;;;8.60;;
6519;SDS011;3293;51.690;5.982;2022-10-16T21:12:06;13.57;;;9.07;;
6519;SDS011;3293;51.690;5.982;2022-10-16T21:17:05;12.63;;;9.63;;
6519;SDS011;3293;51.690;5.982;2022-10-16T21:22:07;13.17;;;9.33;;
6519;SDS011;3293;51.690;5.982;2022-10-16T21:27:08;15.00;;;9.47;;
6519;SDS011;3293;51.690;5.982;2022-10-16T21:32:08;10.80;;;9.07;;
6519;SDS011;3293;51.690;5.982;2022-10-16T21:37:08;10.03;;;9.03;;
6519;SDS011;3293;51.690;5.982;2022-10-16T21:42:08;13.23;;;9.20;;
6519;SDS011;3293;51.690;5.982;2022-10-16T21:47:08;11.63;;;9.67;;
6519;SDS011;3293;51.690;5.982;2022-10-16T21:52:08;13.60;;;9.70;;
6519;SDS011;3293;51.690;5.982;2022-10-16T21:57:08;14.00;;;9.73;;
6519;SDS011;3293;51.690;5.982;2022-10-16T22:02:08;12.60;;;10.10;;
6519;SDS011;3293;51.690;5.982;2022-10-16T22:07:08;16.60;;;11.17;;
6519;SDS011;3293;51.690;5.982;2022-10-16T22:12:08;13.77;;;11.43;;
6519;SDS011;3293;51.690;5.982;2022-10-16T22:17:08;13.30;;;10.83;;
6519;SDS011;3293;51.690;5.982;2022-10-16T22:22:08;14.23;;;10.80;;
6519;SDS011;3293;51.690;5.982;2022-10-16T22:27:07;15.53;;;11.77;;
6519;SDS011;3293;51.690;5.982;2022-10-16T22:32:07;13.43;;;11.23;;
6519;SDS011;3293;51.690;5.982;2022-10-16T22:37:07;14.93;;;12.10;;
6519;SDS011;3293;51.690;5.982;2022-10-16T22:42:08;16.60;;;11.87;;
6519;SDS011;3293;51.690;5.982;2022-10-16T22:47:08;20.23;;;13.60;;
6519;SDS011;3293;51.690;5.982;2022-10-16T22:52:08;16.47;;;12.37;;
6519;SDS011;3293;51.690;5.982;2022-10-16T22:57:08;14.80;;;12.93;;
6519;SDS011;3293;51.690;5.982;2022-10-16T23:02:07;18.33;;;13.60;;
6519;SDS011;3293;51.690;5.982;2022-10-16T23:07:08;19.93;;;14.00;;
6519;SDS011;3293;51.690;5.982;2022-10-16T23:12:07;14.77;;;12.63;;
6519;SDS011;3293;51.690;5.982;2022-10-16T23:17:07;16.63;;;13.40;;
6519;SDS011;3293;51.690;5.982;2022-10-16T23:22:07;13.57;;;12.23;;
6519;SDS011;3293;51.690;5.982;2022-10-16T23:27:07;16.20;;;13.13;;
6519;SDS011;3293;51.690;5.982;2022-10-16T23:32:07;15.90;;;12.93;;
6519;SDS011;3293;51.690;5.982;2022-10-16T23:37:07;18.70;;;13.87;;
6519;SDS011;3293;51.690;5.982;2022-10-16T23:42:07;21.10;;;13.73;;
6519;SDS011;3293;51.690;5.982;2022-10-16T23:47:07;17.27;;;13.33;;
6519;SDS011;3293;51.690;5.982;2022-10-16T23:52:07;19.50;;;13.77;;
6519;SDS011;3293;51.690;5.982;2022-10-16T23:57:07;16.53;;;13.87;;
